sensor_id;sensor_type;location;lat;lon;timestamp;pressure;altitude;pressure_sealevel;temperature
24278;BMP280;12394;42.692;23.314;2022-12-22T00:02:41;95224.50;;;1.85
24278;BMP280;12394;42.692;23.314;2022-12-22T00:05:24;95243.09;;;1.90
24278;BMP280;12394;42.692;23.314;2022-12-22T00:08:09;95233.19;;;1.92
24278;BMP280;12394;42.692;23.314;2022-12-22T00:10:54;95230.31;;;1.94
24278;BMP280;12394;42.692;23.314;2022-12-22T00:13:40;95226.22;;;1.93
24278;BMP280;12394;42.692;23.314;2022-12-22T00:16:31;95230.97;;;1.91
24278;BMP280;12394;42.692;23.314;2022-12-22T00:19:15;95226.88;;;1.90
24278;BMP280;12394;42.692;23.314;2022-12-22T00:22:20;95216.31;;;1.83
24278;BMP280;12394;42.692;23.314;2022-12-22T00:25:05;95234.72;;;1.93
24278;BMP280;12394;42.692;23.314;2022-12-22T00:27:49;95219.88;;;1.78
24278;BMP280;12394;42.692;23.314;2022-12-22T00:30:34;95230.31;;;1.82
24278;BMP280;12394;42.692;23.314;2022-12-22T00:33:19;95213.75;;;1.70
24278;BMP280;12394;42.692;23.314;2022-12-22T00:36:04;95240.19;;;1.79
24278;BMP280;12394;42.692;23.314;2022-12-22T00:38:50;95225.03;;;1.78
24278;BMP280;12394;42.692;23.314;2022-12-22T00:41:33;95217.09;;;1.71
24278;BMP280;12394;42.692;23.314;2022-12-22T00:44:17;95229.56;;;1.81
24278;BMP280;12394;42.692;23.314;2022-12-22T00:47:02;95225.56;;;1.84
24278;BMP280;12394;42.692;23.314;2022-12-22T00:49:47;95215.34;;;1.75
24278;BMP280;12394;42.692;23.314;2022-12-22T00:52:32;95222.22;;;1.83
24278;BMP280;12394;42.692;23.314;2022-12-22T00:55:19;95199.34;;;1.69
24278;BMP280;12394;42.692;23.314;2022-12-22T00:58:12;95203.88;;;1.72
24278;BMP280;12394;42.692;23.314;2022-12-22T01:00:57;95217.63;;;1.76
24278;BMP280;12394;42.692;23.314;2022-12-22T01:03:41;95214.41;;;1.79
24278;BMP280;12394;42.692;23.314;2022-12-22T01:06:26;95207.75;;;1.91
24278;BMP280;12394;42.692;23.314;2022-12-22T01:09:11;95209.69;;;1.82
24278;BMP280;12394;42.692;23.314;2022-12-22T01:11:56;95207.31;;;1.76
24278;BMP280;12394;42.692;23.314;2022-12-22T01:14:40;95200.41;;;1.68
24278;BMP280;12394;42.692;23.314;2022-12-22T01:17:24;95190.84;;;1.69
24278;BMP280;12394;42.692;23.314;2022-12-22T01:20:08;95183.97;;;1.73
24278;BMP280;12394;42.692;23.314;2022-12-22T01:22:52;95194.28;;;1.73
24278;BMP280;12394;42.692;23.314;2022-12-22T01:25:36;95169.06;;;1.54
24278;BMP280;12394;42.692;23.314;2022-12-22T01:28:20;95187.53;;;1.56
24278;BMP280;12394;42.692;23.314;2022-12-22T01:31:27;95192.34;;;1.46
24278;BMP280;12394;42.692;23.314;2022-12-22T01:34:11;95194.41;;;1.40
24278;BMP280;12394;42.692;23.314;2022-12-22T01:36:55;95193.84;;;1.34
24278;BMP280;12394;42.692;23.314;2022-12-22T01:39:39;95195.47;;;1.27
24278;BMP280;12394;42.692;23.314;2022-12-22T01:42:23;95172.97;;;1.15
24278;BMP280;12394;42.692;23.314;2022-12-22T01:48:01;95185.00;;;1.23
24278;BMP280;12394;42.692;23.314;2022-12-22T01:50:46;95196.06;;;1.24
24278;BMP280;12394;42.692;23.314;2022-12-22T01:53:29;95190.91;;;1.12
24278;BMP280;12394;42.692;23.314;2022-12-22T01:56:14;95195.75;;;1.13
24278;BMP280;12394;42.692;23.314;2022-12-22T01:59:00;95199.97;;;0.97
24278;BMP280;12394;42.692;23.314;2022-12-22T02:01:46;95198.81;;;0.95
24278;BMP280;12394;42.692;23.314;2022-12-22T02:04:35;95196.53;;;0.93
24278;BMP280;12394;42.692;23.314;2022-12-22T02:13:49;95191.88;;;0.74
24278;BMP280;12394;42.692;23.314;2022-12-22T02:16:49;95196.91;;;0.71
24278;BMP280;12394;42.692;23.314;2022-12-22T02:25:52;95187.16;;;0.56
24278;BMP280;12394;42.692;23.314;2022-12-22T02:28:38;95190.31;;;0.61
24278;BMP280;12394;42.692;23.314;2022-12-22T02:31:23;95195.56;;;0.65
24278;BMP280;12394;42.692;23.314;2022-12-22T02:34:13;95191.94;;;0.66
24278;BMP280;12394;42.692;23.314;2022-12-22T02:37:14;95170.56;;;0.53
24278;BMP280;12394;42.692;23.314;2022-12-22T02:40:16;95170.22;;;0.55
24278;BMP280;12394;42.692;23.314;2022-12-22T02:46:07;95182.41;;;0.66
24278;BMP280;12394;42.692;23.314;2022-12-22T02:49:15;95183.78;;;0.64
24278;BMP280;12394;42.692;23.314;2022-12-22T02:52:11;95172.09;;;0.66
24278;BMP280;12394;42.692;23.314;2022-12-22T02:54:56;95179.63;;;0.71
24278;BMP280;12394;42.692;23.314;2022-12-22T02:57:40;95174.91;;;0.73
24278;BMP280;12394;42.692;23.314;2022-12-22T03:02:58;95183.19;;;0.79
24278;BMP280;12394;42.692;23.314;2022-12-22T03:05:42;95175.16;;;0.80
24278;BMP280;12394;42.692;23.314;2022-12-22T03:08:26;95159.78;;;0.72
24278;BMP280;12394;42.692;23.314;2022-12-22T03:11:10;95168.59;;;0.83
24278;BMP280;12394;42.692;23.314;2022-12-22T03:13:54;95164.84;;;0.80
24278;BMP280;12394;42.692;23.314;2022-12-22T03:16:38;95186.88;;;0.90
24278;BMP280;12394;42.692;23.314;2022-12-22T03:19:22;95169.56;;;0.78
24278;BMP280;12394;42.692;23.314;2022-12-22T03:22:06;95179.56;;;0.92
24278;BMP280;12394;42.692;23.314;2022-12-22T03:24:49;95173.88;;;0.86
24278;BMP280;12394;42.692;23.314;2022-12-22T03:27:33;95175.19;;;0.93
24278;BMP280;12394;42.692;23.314;2022-12-22T03:29:59;95181.72;;;0.90
24278;BMP280;12394;42.692;23.314;2022-12-22T03:32:24;95178.28;;;0.86
24278;BMP280;12394;42.692;23.314;2022-12-22T03:34:49;95180.53;;;0.87
24278;BMP280;12394;42.692;23.314;2022-12-22T03:37:15;95178.41;;;0.89
24278;BMP280;12394;42.692;23.314;2022-12-22T03:39:40;95189.13;;;0.92
24278;BMP280;12394;42.692;23.314;2022-12-22T03:42:06;95171.06;;;0.79
24278;BMP280;12394;42.692;23.314;2022-12-22T03:44:50;95184.31;;;0.90
24278;BMP280;12394;42.692;23.314;2022-12-22T03:47:34;95183.00;;;0.84
24278;BMP280;12394;42.692;23.314;2022-12-22T03:49:59;95177.47;;;0.73
24278;BMP280;12394;42.692;23.314;2022-12-22T03:52:24;95186.06;;;0.77
24278;BMP280;12394;42.692;23.314;2022-12-22T03:54:50;95180.19;;;0.77
24278;BMP280;12394;42.692;23.314;2022-12-22T03:57:15;95176.88;;;0.76
24278;BMP280;12394;42.692;23.314;2022-12-22T03:59:40;95181.88;;;0.73
24278;BMP280;12394;42.692;23.314;2022-12-22T04:02:06;95170.41;;;0.70
24278;BMP280;12394;42.692;23.314;2022-12-22T04:04:31;95162.00;;;0.61
24278;BMP280;12394;42.692;23.314;2022-12-22T04:06:57;95189.94;;;0.71
24278;BMP280;12394;42.692;23.314;2022-12-22T04:09:23;95183.28;;;0.70
24278;BMP280;12394;42.692;23.314;2022-12-22T04:11:50;95175.84;;;0.69
24278;BMP280;12394;42.692;23.314;2022-12-22T04:14:34;95181.00;;;0.69
24278;BMP280;12394;42.692;23.314;2022-12-22T04:17:00;95169.94;;;0.68
24278;BMP280;12394;42.692;23.314;2022-12-22T04:19:26;95176.00;;;0.72
24278;BMP280;12394;42.692;23.314;2022-12-22T04:21:53;95176.72;;;0.73
24278;BMP280;12394;42.692;23.314;2022-12-22T04:24:18;95179.00;;;0.74
24278;BMP280;12394;42.692;23.314;2022-12-22T04:26:44;95186.53;;;0.79
24278;BMP280;12394;42.692;23.314;2022-12-22T04:29:09;95163.94;;;0.64
24278;BMP280;12394;42.692;23.314;2022-12-22T04:31:34;95167.75;;;0.79
24278;BMP280;12394;42.692;23.314;2022-12-22T04:34:00;95155.25;;;0.69
24278;BMP280;12394;42.692;23.314;2022-12-22T04:36:25;95150.00;;;0.65
24278;BMP280;12394;42.692;23.314;2022-12-22T04:38:50;95170.28;;;0.67
24278;BMP280;12394;42.692;23.314;2022-12-22T04:41:16;95167.44;;;0.60
24278;BMP280;12394;42.692;23.314;2022-12-22T04:43:41;95178.38;;;0.57
24278;BMP280;12394;42.692;23.314;2022-12-22T04:46:07;95174.75;;;0.58
24278;BMP280;12394;42.692;23.314;2022-12-22T04:48:32;95184.28;;;0.57
24278;BMP280;12394;42.692;23.314;2022-12-22T04:50:59;95174.41;;;0.59
24278;BMP280;12394;42.692;23.314;2022-12-22T04:53:26;95177.13;;;0.63
24278;BMP280;12394;42.692;23.314;2022-12-22T04:56:03;95173.47;;;0.64
24278;BMP280;12394;42.692;23.314;2022-12-22T04:58:30;95154.78;;;0.55
24278;BMP280;12394;42.692;23.314;2022-12-22T05:00:55;95163.13;;;0.72
24278;BMP280;12394;42.692;23.314;2022-12-22T05:03:21;95167.25;;;0.65
24278;BMP280;12394;42.692;23.314;2022-12-22T05:05:46;95165.56;;;0.69
24278;BMP280;12394;42.692;23.314;2022-12-22T05:08:12;95160.97;;;0.74
24278;BMP280;12394;42.692;23.314;2022-12-22T05:10:37;95171.22;;;0.62
24278;BMP280;12394;42.692;23.314;2022-12-22T05:13:03;95177.13;;;0.63
24278;BMP280;12394;42.692;23.314;2022-12-22T05:15:31;95177.00;;;0.59
24278;BMP280;12394;42.692;23.314;2022-12-22T05:17:57;95151.47;;;0.54
24278;BMP280;12394;42.692;23.314;2022-12-22T05:20:23;95162.19;;;0.56
24278;BMP280;12394;42.692;23.314;2022-12-22T05:22:49;95178.00;;;0.67
24278;BMP280;12394;42.692;23.314;2022-12-22T05:25:15;95183.56;;;0.69
24278;BMP280;12394;42.692;23.314;2022-12-22T05:27:42;95186.03;;;0.65
24278;BMP280;12394;42.692;23.314;2022-12-22T05:30:08;95170.97;;;0.55
24278;BMP280;12394;42.692;23.314;2022-12-22T05:32:34;95162.06;;;0.53
24278;BMP280;12394;42.692;23.314;2022-12-22T05:35:00;95185.28;;;0.65
24278;BMP280;12394;42.692;23.314;2022-12-22T05:37:25;95186.88;;;0.57
24278;BMP280;12394;42.692;23.314;2022-12-22T05:39:50;95193.94;;;0.60
24278;BMP280;12394;42.692;23.314;2022-12-22T05:42:16;95187.09;;;0.64
24278;BMP280;12394;42.692;23.314;2022-12-22T05:45:13;95181.53;;;0.62
24278;BMP280;12394;42.692;23.314;2022-12-22T05:47:40;95187.34;;;0.71
24278;BMP280;12394;42.692;23.314;2022-12-22T05:50:07;95185.00;;;0.78
24278;BMP280;12394;42.692;23.314;2022-12-22T05:52:32;95183.03;;;0.63
24278;BMP280;12394;42.692;23.314;2022-12-22T05:54:58;95174.38;;;0.68
24278;BMP280;12394;42.692;23.314;2022-12-22T05:57:23;95181.53;;;0.62
24278;BMP280;12394;42.692;23.314;2022-12-22T05:59:49;95186.22;;;0.60
24278;BMP280;12394;42.692;23.314;2022-12-22T06:02:14;95184.22;;;0.66
24278;BMP280;12394;42.692;23.314;2022-12-22T06:04:40;95194.22;;;0.67
24278;BMP280;12394;42.692;23.314;2022-12-22T06:07:05;95192.81;;;0.70
24278;BMP280;12394;42.692;23.314;2022-12-22T06:09:31;95186.28;;;0.72
24278;BMP280;12394;42.692;23.314;2022-12-22T06:11:56;95188.66;;;0.77
24278;BMP280;12394;42.692;23.314;2022-12-22T06:14:22;95187.38;;;0.83
24278;BMP280;12394;42.692;23.314;2022-12-22T06:16:47;95176.78;;;0.85
24278;BMP280;12394;42.692;23.314;2022-12-22T06:19:12;95180.13;;;0.98
24278;BMP280;12394;42.692;23.314;2022-12-22T06:21:38;95183.69;;;1.05
24278;BMP280;12394;42.692;23.314;2022-12-22T06:24:03;95187.97;;;1.01
24278;BMP280;12394;42.692;23.314;2022-12-22T06:26:30;95170.78;;;0.93
24278;BMP280;12394;42.692;23.314;2022-12-22T06:28:55;95187.88;;;1.10
24278;BMP280;12394;42.692;23.314;2022-12-22T06:31:22;95196.28;;;1.19
24278;BMP280;12394;42.692;23.314;2022-12-22T06:33:47;95196.31;;;1.31
24278;BMP280;12394;42.692;23.314;2022-12-22T06:36:13;95175.69;;;1.31
24278;BMP280;12394;42.692;23.314;2022-12-22T06:38:38;95188.28;;;1.45
24278;BMP280;12394;42.692;23.314;2022-12-22T06:41:04;95199.38;;;1.82
24278;BMP280;12394;42.692;23.314;2022-12-22T06:43:29;95189.97;;;2.13
24278;BMP280;12394;42.692;23.314;2022-12-22T06:45:55;95186.66;;;2.53
24278;BMP280;12394;42.692;23.314;2022-12-22T06:48:20;95208.06;;;3.25
24278;BMP280;12394;42.692;23.314;2022-12-22T06:50:46;95209.28;;;3.58
24278;BMP280;12394;42.692;23.314;2022-12-22T06:53:11;95205.91;;;3.74
24278;BMP280;12394;42.692;23.314;2022-12-22T06:55:37;95214.59;;;3.66
24278;BMP280;12394;42.692;23.314;2022-12-22T06:58:04;95194.59;;;3.31
24278;BMP280;12394;42.692;23.314;2022-12-22T07:00:29;95213.00;;;3.30
24278;BMP280;12394;42.692;23.314;2022-12-22T07:02:54;95211.75;;;3.24
24278;BMP280;12394;42.692;23.314;2022-12-22T07:05:20;95213.00;;;3.45
24278;BMP280;12394;42.692;23.314;2022-12-22T07:07:48;95214.47;;;4.09
24278;BMP280;12394;42.692;23.314;2022-12-22T07:10:13;95217.56;;;4.88
24278;BMP280;12394;42.692;23.314;2022-12-22T07:12:38;95212.41;;;5.53
24278;BMP280;12394;42.692;23.314;2022-12-22T07:15:04;95209.22;;;5.86
24278;BMP280;12394;42.692;23.314;2022-12-22T07:17:30;95215.06;;;6.58
24278;BMP280;12394;42.692;23.314;2022-12-22T07:19:55;95218.53;;;6.69
24278;BMP280;12394;42.692;23.314;2022-12-22T07:22:20;95210.47;;;7.48
24278;BMP280;12394;42.692;23.314;2022-12-22T07:24:46;95222.44;;;7.59
24278;BMP280;12394;42.692;23.314;2022-12-22T07:27:11;95225.44;;;7.62
24278;BMP280;12394;42.692;23.314;2022-12-22T07:29:37;95212.84;;;7.67
24278;BMP280;12394;42.692;23.314;2022-12-22T07:32:05;95194.44;;;7.93
24278;BMP280;12394;42.692;23.314;2022-12-22T07:34:30;95213.50;;;8.66
24278;BMP280;12394;42.692;23.314;2022-12-22T07:36:56;95227.59;;;9.80
24278;BMP280;12394;42.692;23.314;2022-12-22T07:39:21;95220.47;;;9.52
24278;BMP280;12394;42.692;23.314;2022-12-22T07:41:46;95210.03;;;9.95
24278;BMP280;12394;42.692;23.314;2022-12-22T07:44:30;95224.00;;;10.96
24278;BMP280;12394;42.692;23.314;2022-12-22T07:46:55;95217.66;;;11.63
24278;BMP280;12394;42.692;23.314;2022-12-22T07:49:21;95216.06;;;12.24
24278;BMP280;12394;42.692;23.314;2022-12-22T07:52:05;95224.94;;;12.75
24278;BMP280;12394;42.692;23.314;2022-12-22T07:54:30;95217.88;;;12.68
24278;BMP280;12394;42.692;23.314;2022-12-22T07:56:56;95214.47;;;13.86
24278;BMP280;12394;42.692;23.314;2022-12-22T07:59:21;95214.84;;;14.54
24278;BMP280;12394;42.692;23.314;2022-12-22T08:01:47;95204.16;;;16.05
24278;BMP280;12394;42.692;23.314;2022-12-22T08:04:13;95198.69;;;15.47
24278;BMP280;12394;42.692;23.314;2022-12-22T08:06:38;95207.16;;;16.35
24278;BMP280;12394;42.692;23.314;2022-12-22T08:09:05;95203.66;;;16.55
24278;BMP280;12394;42.692;23.314;2022-12-22T08:11:31;95200.06;;;16.77
24278;BMP280;12394;42.692;23.314;2022-12-22T08:13:57;95200.91;;;18.26
24278;BMP280;12394;42.692;23.314;2022-12-22T08:16:24;95203.03;;;19.18
24278;BMP280;12394;42.692;23.314;2022-12-22T08:18:50;95192.03;;;18.98
24278;BMP280;12394;42.692;23.314;2022-12-22T08:21:19;95199.56;;;19.61
24278;BMP280;12394;42.692;23.314;2022-12-22T08:23:44;95192.31;;;20.02
24278;BMP280;12394;42.692;23.314;2022-12-22T08:26:42;95201.03;;;20.20
24278;BMP280;12394;42.692;23.314;2022-12-22T08:29:16;95206.00;;;18.89
24278;BMP280;12394;42.692;23.314;2022-12-22T08:31:43;95203.78;;;18.19
24278;BMP280;12394;42.692;23.314;2022-12-22T08:34:12;95211.91;;;18.03
24278;BMP280;12394;42.692;23.314;2022-12-22T08:36:41;95204.34;;;18.14
24278;BMP280;12394;42.692;23.314;2022-12-22T08:39:08;95194.22;;;17.49
24278;BMP280;12394;42.692;23.314;2022-12-22T08:41:35;95190.38;;;18.01
24278;BMP280;12394;42.692;23.314;2022-12-22T08:44:24;95194.97;;;19.31
24278;BMP280;12394;42.692;23.314;2022-12-22T08:46:50;95192.88;;;18.17
24278;BMP280;12394;42.692;23.314;2022-12-22T08:49:16;95185.88;;;18.23
24278;BMP280;12394;42.692;23.314;2022-12-22T08:51:43;95185.50;;;20.01
24278;BMP280;12394;42.692;23.314;2022-12-22T08:54:09;95180.56;;;19.72
24278;BMP280;12394;42.692;23.314;2022-12-22T08:56:52;95164.13;;;19.46
24278;BMP280;12394;42.692;23.314;2022-12-22T08:59:18;95174.34;;;18.73
24278;BMP280;12394;42.692;23.314;2022-12-22T09:01:44;95178.56;;;19.14
24278;BMP280;12394;42.692;23.314;2022-12-22T09:04:16;95179.81;;;19.31
24278;BMP280;12394;42.692;23.314;2022-12-22T09:06:43;95140.91;;;20.86
24278;BMP280;12394;42.692;23.314;2022-12-22T09:09:11;95157.09;;;21.49
24278;BMP280;12394;42.692;23.314;2022-12-22T09:11:39;95153.97;;;22.84
24278;BMP280;12394;42.692;23.314;2022-12-22T09:14:07;95156.75;;;21.89
24278;BMP280;12394;42.692;23.314;2022-12-22T09:16:33;95151.63;;;21.19
24278;BMP280;12394;42.692;23.314;2022-12-22T09:19:01;95151.69;;;21.43
24278;BMP280;12394;42.692;23.314;2022-12-22T09:21:47;95146.97;;;21.38
24278;BMP280;12394;42.692;23.314;2022-12-22T09:24:13;95130.38;;;21.67
24278;BMP280;12394;42.692;23.314;2022-12-22T09:26:38;95147.63;;;22.96
24278;BMP280;12394;42.692;23.314;2022-12-22T09:29:05;95141.63;;;24.26
24278;BMP280;12394;42.692;23.314;2022-12-22T09:31:30;95148.09;;;23.59
24278;BMP280;12394;42.692;23.314;2022-12-22T09:33:57;95149.09;;;23.61
24278;BMP280;12394;42.692;23.314;2022-12-22T09:36:26;95145.06;;;24.26
24278;BMP280;12394;42.692;23.314;2022-12-22T09:38:52;95145.03;;;24.72
24278;BMP280;12394;42.692;23.314;2022-12-22T09:43:45;95135.59;;;24.51
24278;BMP280;12394;42.692;23.314;2022-12-22T09:46:22;95135.78;;;22.29
24278;BMP280;12394;42.692;23.314;2022-12-22T09:48:50;95134.16;;;23.20
24278;BMP280;12394;42.692;23.314;2022-12-22T09:51:16;95124.56;;;22.25
24278;BMP280;12394;42.692;23.314;2022-12-22T09:53:44;95130.44;;;23.46
24278;BMP280;12394;42.692;23.314;2022-12-22T09:56:13;95126.50;;;25.57
24278;BMP280;12394;42.692;23.314;2022-12-22T09:58:39;95109.84;;;24.54
24278;BMP280;12394;42.692;23.314;2022-12-22T10:09:07;95097.38;;;24.76
24278;BMP280;12394;42.692;23.314;2022-12-22T10:11:36;95100.34;;;25.95
24278;BMP280;12394;42.692;23.314;2022-12-22T10:14:01;95089.84;;;25.43
24278;BMP280;12394;42.692;23.314;2022-12-22T10:16:27;95085.75;;;25.53
24278;BMP280;12394;42.692;23.314;2022-12-22T10:19:13;95073.94;;;25.77
24278;BMP280;12394;42.692;23.314;2022-12-22T10:21:39;95072.75;;;25.35
24278;BMP280;12394;42.692;23.314;2022-12-22T10:24:26;95062.72;;;24.88
24278;BMP280;12394;42.692;23.314;2022-12-22T10:26:57;95076.69;;;24.00
24278;BMP280;12394;42.692;23.314;2022-12-22T10:29:23;95061.19;;;23.63
24278;BMP280;12394;42.692;23.314;2022-12-22T10:32:04;95064.59;;;23.09
24278;BMP280;12394;42.692;23.314;2022-12-22T10:34:35;95058.78;;;21.93
24278;BMP280;12394;42.692;23.314;2022-12-22T10:37:02;95044.63;;;21.06
24278;BMP280;12394;42.692;23.314;2022-12-22T10:39:31;95046.34;;;22.43
24278;BMP280;12394;42.692;23.314;2022-12-22T10:42:07;95001.06;;;21.51
24278;BMP280;12394;42.692;23.314;2022-12-22T10:44:34;95036.06;;;23.00
24278;BMP280;12394;42.692;23.314;2022-12-22T10:47:17;95040.53;;;22.15
24278;BMP280;12394;42.692;23.314;2022-12-22T10:49:55;95031.34;;;22.89
24278;BMP280;12394;42.692;23.314;2022-12-22T10:52:27;95025.53;;;23.86
24278;BMP280;12394;42.692;23.314;2022-12-22T10:55:17;95035.66;;;23.42
24278;BMP280;12394;42.692;23.314;2022-12-22T10:57:43;95030.88;;;23.26
24278;BMP280;12394;42.692;23.314;2022-12-22T11:00:36;95023.78;;;22.88
24278;BMP280;12394;42.692;23.314;2022-12-22T11:03:04;95024.34;;;22.77
24278;BMP280;12394;42.692;23.314;2022-12-22T11:05:31;95018.81;;;22.81
24278;BMP280;12394;42.692;23.314;2022-12-22T11:08:06;95023.97;;;22.84
24278;BMP280;12394;42.692;23.314;2022-12-22T11:10:46;95011.91;;;22.89
24278;BMP280;12394;42.692;23.314;2022-12-22T11:16:49;95004.91;;;21.26
24278;BMP280;12394;42.692;23.314;2022-12-22T11:19:28;95003.25;;;20.30
24278;BMP280;12394;42.692;23.314;2022-12-22T11:22:09;94992.19;;;19.41
24278;BMP280;12394;42.692;23.314;2022-12-22T11:30:07;94983.56;;;17.21
24278;BMP280;12394;42.692;23.314;2022-12-22T11:35:25;94966.81;;;16.39
24278;BMP280;12394;42.692;23.314;2022-12-22T11:38:12;94984.19;;;16.24
24278;BMP280;12394;42.692;23.314;2022-12-22T11:40:46;94977.75;;;15.26
24278;BMP280;12394;42.692;23.314;2022-12-22T11:43:23;94978.75;;;14.83
24278;BMP280;12394;42.692;23.314;2022-12-22T11:46:00;94980.13;;;14.39
24278;BMP280;12394;42.692;23.314;2022-12-22T11:49:15;94980.69;;;13.91
24278;BMP280;12394;42.692;23.314;2022-12-22T11:57:33;94977.03;;;13.46
24278;BMP280;12394;42.692;23.314;2022-12-22T12:00:13;94977.06;;;13.22
24278;BMP280;12394;42.692;23.314;2022-12-22T12:07:52;94960.84;;;12.27
24278;BMP280;12394;42.692;23.314;2022-12-22T12:15:43;94953.34;;;11.65
24278;BMP280;12394;42.692;23.314;2022-12-22T12:26:28;94949.16;;;11.37
24278;BMP280;12394;42.692;23.314;2022-12-22T12:31:42;94951.25;;;11.49
24278;BMP280;12394;42.692;23.314;2022-12-22T12:34:13;94940.50;;;11.44
24278;BMP280;12394;42.692;23.314;2022-12-22T12:39:46;94943.25;;;11.30
24278;BMP280;12394;42.692;23.314;2022-12-22T12:44:46;94941.66;;;11.02
24278;BMP280;12394;42.692;23.314;2022-12-22T12:47:22;94938.78;;;11.27
24278;BMP280;12394;42.692;23.314;2022-12-22T12:55:29;94926.94;;;11.15
24278;BMP280;12394;42.692;23.314;2022-12-22T12:57:57;94898.72;;;10.92
24278;BMP280;12394;42.692;23.314;2022-12-22T13:03:02;94927.16;;;10.94
24278;BMP280;12394;42.692;23.314;2022-12-22T13:08:12;94925.94;;;11.02
24278;BMP280;12394;42.692;23.314;2022-12-22T13:23:39;94919.53;;;10.65
24278;BMP280;12394;42.692;23.314;2022-12-22T13:26:06;94902.59;;;10.29
24278;BMP280;12394;42.692;23.314;2022-12-22T13:28:35;94919.88;;;10.67
24278;BMP280;12394;42.692;23.314;2022-12-22T13:31:15;94912.53;;;11.34
24278;BMP280;12394;42.692;23.314;2022-12-22T13:33:43;94916.72;;;11.62
24278;BMP280;12394;42.692;23.314;2022-12-22T13:36:16;94921.41;;;12.08
24278;BMP280;12394;42.692;23.314;2022-12-22T13:38:43;94924.63;;;12.19
24278;BMP280;12394;42.692;23.314;2022-12-22T13:41:17;94921.31;;;12.15
24278;BMP280;12394;42.692;23.314;2022-12-22T13:43:48;94911.44;;;12.22
24278;BMP280;12394;42.692;23.314;2022-12-22T13:46:16;94912.13;;;12.30
24278;BMP280;12394;42.692;23.314;2022-12-22T13:48:44;94914.56;;;12.14
24278;BMP280;12394;42.692;23.314;2022-12-22T13:51:20;94910.94;;;12.08
24278;BMP280;12394;42.692;23.314;2022-12-22T13:53:50;94913.88;;;12.10
24278;BMP280;12394;42.692;23.314;2022-12-22T13:56:21;94914.63;;;12.10
24278;BMP280;12394;42.692;23.314;2022-12-22T13:58:57;94908.00;;;12.02
24278;BMP280;12394;42.692;23.314;2022-12-22T14:01:24;94910.06;;;11.53
24278;BMP280;12394;42.692;23.314;2022-12-22T14:03:57;94912.63;;;11.23
24278;BMP280;12394;42.692;23.314;2022-12-22T14:11:39;94891.88;;;10.64
24278;BMP280;12394;42.692;23.314;2022-12-22T14:14:14;94876.16;;;10.20
24278;BMP280;12394;42.692;23.314;2022-12-22T14:16:46;94882.88;;;10.14
24278;BMP280;12394;42.692;23.314;2022-12-22T14:19:16;94889.66;;;10.08
24278;BMP280;12394;42.692;23.314;2022-12-22T14:21:44;94889.72;;;9.94
24278;BMP280;12394;42.692;23.314;2022-12-22T14:24:23;94885.94;;;10.02
24278;BMP280;12394;42.692;23.314;2022-12-22T14:26:51;94892.72;;;9.92
24278;BMP280;12394;42.692;23.314;2022-12-22T14:29:20;94896.97;;;9.61
24278;BMP280;12394;42.692;23.314;2022-12-22T14:31:55;94885.44;;;9.55
24278;BMP280;12394;42.692;23.314;2022-12-22T14:34:26;94896.69;;;9.38
24278;BMP280;12394;42.692;23.314;2022-12-22T14:36:52;94879.22;;;9.21
24278;BMP280;12394;42.692;23.314;2022-12-22T14:39:23;94898.22;;;9.25
24278;BMP280;12394;42.692;23.314;2022-12-22T14:41:51;94897.91;;;8.98
24278;BMP280;12394;42.692;23.314;2022-12-22T14:44:42;94898.31;;;8.82
24278;BMP280;12394;42.692;23.314;2022-12-22T14:50:00;94888.63;;;8.65
24278;BMP280;12394;42.692;23.314;2022-12-22T14:52:35;94903.91;;;8.63
24278;BMP280;12394;42.692;23.314;2022-12-22T14:55:05;94902.06;;;8.67
24278;BMP280;12394;42.692;23.314;2022-12-22T14:57:45;94890.13;;;8.56
24278;BMP280;12394;42.692;23.314;2022-12-22T15:02:53;94911.38;;;8.47
24278;BMP280;12394;42.692;23.314;2022-12-22T15:07:48;94912.09;;;8.26
24278;BMP280;12394;42.692;23.314;2022-12-22T15:10:15;94905.38;;;8.22
24278;BMP280;12394;42.692;23.314;2022-12-22T15:12:41;94910.59;;;8.22
24278;BMP280;12394;42.692;23.314;2022-12-22T15:15:18;94906.81;;;7.98
24278;BMP280;12394;42.692;23.314;2022-12-22T15:17:47;94900.50;;;8.02
24278;BMP280;12394;42.692;23.314;2022-12-22T15:20:20;94893.78;;;7.98
24278;BMP280;12394;42.692;23.314;2022-12-22T15:22:46;94905.34;;;8.08
24278;BMP280;12394;42.692;23.314;2022-12-22T15:25:30;94907.88;;;7.79
24278;BMP280;12394;42.692;23.314;2022-12-22T15:27:55;94916.13;;;8.02
24278;BMP280;12394;42.692;23.314;2022-12-22T15:30:21;94896.00;;;7.85
24278;BMP280;12394;42.692;23.314;2022-12-22T15:32:47;94909.38;;;7.77
24278;BMP280;12394;42.692;23.314;2022-12-22T15:35:23;94912.34;;;7.82
24278;BMP280;12394;42.692;23.314;2022-12-22T15:37:49;94895.91;;;7.60
24278;BMP280;12394;42.692;23.314;2022-12-22T15:40:17;94927.91;;;7.57
24278;BMP280;12394;42.692;23.314;2022-12-22T15:42:42;94921.06;;;7.32
24278;BMP280;12394;42.692;23.314;2022-12-22T15:45:08;94924.41;;;7.22
24278;BMP280;12394;42.692;23.314;2022-12-22T15:47:33;94915.34;;;6.98
24278;BMP280;12394;42.692;23.314;2022-12-22T15:49:59;94924.59;;;6.95
24278;BMP280;12394;42.692;23.314;2022-12-22T15:52:24;94929.75;;;6.88
24278;BMP280;12394;42.692;23.314;2022-12-22T15:54:50;94911.84;;;6.76
24278;BMP280;12394;42.692;23.314;2022-12-22T15:57:16;94924.47;;;6.74
24278;BMP280;12394;42.692;23.314;2022-12-22T15:59:41;94907.31;;;6.66
24278;BMP280;12394;42.692;23.314;2022-12-22T16:02:11;94919.16;;;6.60
24278;BMP280;12394;42.692;23.314;2022-12-22T16:04:37;94925.50;;;6.62
24278;BMP280;12394;42.692;23.314;2022-12-22T16:07:03;94908.28;;;6.47
24278;BMP280;12394;42.692;23.314;2022-12-22T16:09:32;94937.31;;;6.53
24278;BMP280;12394;42.692;23.314;2022-12-22T16:12:14;94929.47;;;6.49
24278;BMP280;12394;42.692;23.314;2022-12-22T16:14:43;94938.34;;;6.45
24278;BMP280;12394;42.692;23.314;2022-12-22T16:17:28;94927.09;;;6.30
24278;BMP280;12394;42.692;23.314;2022-12-22T16:19:53;94942.06;;;6.44
24278;BMP280;12394;42.692;23.314;2022-12-22T16:22:25;94944.97;;;6.39
24278;BMP280;12394;42.692;23.314;2022-12-22T16:24:54;94934.09;;;6.26
24278;BMP280;12394;42.692;23.314;2022-12-22T16:27:20;94942.66;;;6.27
24278;BMP280;12394;42.692;23.314;2022-12-22T16:29:49;94943.75;;;6.25